sensor_id;sensor_type;location;lat;lon;timestamp;P1;durP1;ratioP1;P2;durP2;ratioP2
27375;SDS011;14844;51.302;6.354;2023-02-28T00:01:10;15.65;;;7.70;;
27375;SDS011;14844;51.302;6.354;2023-02-28T00:03:37;17.02;;;7.95;;
27375;SDS011;14844;51.302;6.354;2023-02-28T00:06:03;18.58;;;7.25;;
27375;SDS011;14844;51.302;6.354;2023-02-28T00:08:29;16.95;;;7.35;;
27375;SDS011;14844;51.302;6.354;2023-02-28T00:10:55;15.63;;;7.80;;
27375;SDS011;14844;51.302;6.354;2023-02-28T00:13:20;17.23;;;7.63;;
27375;SDS011;14844;51.302;6.354;2023-02-28T00:15:46;18.08;;;7.53;;
27375;SDS011;14844;51.302;6.354;2023-02-28T00:18:11;13.07;;;7.35;;
27375;SDS011;14844;51.302;6.354;2023-02-28T00:20:38;17.25;;;8.00;;
27375;SDS011;14844;51.302;6.354;2023-02-28T00:23:03;18.63;;;7.60;;
27375;SDS011;14844;51.302;6.354;2023-02-28T00:25:29;17.13;;;7.53;;
27375;SDS011;14844;51.302;6.354;2023-02-28T00:27:55;16.92;;;7.38;;
27375;SDS011;14844;51.302;6.354;2023-02-28T00:30:21;17.20;;;8.10;;
27375;SDS011;14844;51.302;6.354;2023-02-28T00:32:48;15.32;;;7.57;;
27375;SDS011;14844;51.302;6.354;2023-02-28T00:35:14;17.02;;;8.07;;
27375;SDS011;14844;51.302;6.354;2023-02-28T00:37:41;15.32;;;8.25;;
27375;SDS011;14844;51.302;6.354;2023-02-28T00:40:07;15.85;;;8.20;;
27375;SDS011;14844;51.302;6.354;2023-02-28T00:42:34;22.95;;;7.80;;
27375;SDS011;14844;51.302;6.354;2023-02-28T00:45:00;17.42;;;7.97;;
27375;SDS011;14844;51.302;6.354;2023-02-28T00:47:26;18.15;;;7.93;;
27375;SDS011;14844;51.302;6.354;2023-02-28T00:49:51;19.23;;;7.60;;
27375;SDS011;14844;51.302;6.354;2023-02-28T00:52:17;18.10;;;8.00;;
27375;SDS011;14844;51.302;6.354;2023-02-28T00:54:42;17.20;;;8.00;;
27375;SDS011;14844;51.302;6.354;2023-02-28T00:57:08;19.25;;;8.82;;
27375;SDS011;14844;51.302;6.354;2023-02-28T00:59:34;16.52;;;8.68;;
27375;SDS011;14844;51.302;6.354;2023-02-28T01:02:00;14.75;;;8.15;;
27375;SDS011;14844;51.302;6.354;2023-02-28T01:04:25;13.25;;;8.10;;
27375;SDS011;14844;51.302;6.354;2023-02-28T01:06:51;18.13;;;8.88;;
27375;SDS011;14844;51.302;6.354;2023-02-28T01:09:16;16.17;;;8.70;;
27375;SDS011;14844;51.302;6.354;2023-02-28T01:11:42;18.88;;;8.45;;
27375;SDS011;14844;51.302;6.354;2023-02-28T01:14:10;16.58;;;8.60;;
27375;SDS011;14844;51.302;6.354;2023-02-28T01:16:37;17.33;;;8.40;;
27375;SDS011;14844;51.302;6.354;2023-02-28T01:19:03;17.80;;;9.05;;
27375;SDS011;14844;51.302;6.354;2023-02-28T01:21:29;12.65;;;7.93;;
27375;SDS011;14844;51.302;6.354;2023-02-28T01:23:55;16.08;;;8.43;;
27375;SDS011;14844;51.302;6.354;2023-02-28T01:26:22;17.30;;;8.52;;
27375;SDS011;14844;51.302;6.354;2023-02-28T01:28:49;16.75;;;8.57;;
27375;SDS011;14844;51.302;6.354;2023-02-28T01:31:15;16.85;;;8.50;;
27375;SDS011;14844;51.302;6.354;2023-02-28T01:33:42;14.80;;;8.55;;
27375;SDS011;14844;51.302;6.354;2023-02-28T01:36:12;15.05;;;8.60;;
27375;SDS011;14844;51.302;6.354;2023-02-28T01:41:06;21.77;;;9.07;;
27375;SDS011;14844;51.302;6.354;2023-02-28T01:46:07;20.77;;;9.40;;
27375;SDS011;14844;51.302;6.354;2023-02-28T01:48:34;16.55;;;8.68;;
27375;SDS011;14844;51.302;6.354;2023-02-28T01:51:11;15.63;;;8.32;;
27375;SDS011;14844;51.302;6.354;2023-02-28T01:53:44;17.70;;;8.40;;
27375;SDS011;14844;51.302;6.354;2023-02-28T01:56:12;17.02;;;8.27;;
27375;SDS011;14844;51.302;6.354;2023-02-28T01:58:45;16.25;;;8.82;;
27375;SDS011;14844;51.302;6.354;2023-02-28T02:01:12;18.80;;;8.98;;
27375;SDS011;14844;51.302;6.354;2023-02-28T02:03:46;14.20;;;8.02;;
27375;SDS011;14844;51.302;6.354;2023-02-28T02:06:23;13.98;;;8.30;;
27375;SDS011;14844;51.302;6.354;2023-02-28T02:08:52;15.60;;;8.05;;
27375;SDS011;14844;51.302;6.354;2023-02-28T02:11:19;17.65;;;8.10;;
27375;SDS011;14844;51.302;6.354;2023-02-28T02:16:52;14.35;;;7.78;;
27375;SDS011;14844;51.302;6.354;2023-02-28T02:25:42;15.27;;;8.25;;
27375;SDS011;14844;51.302;6.354;2023-02-28T02:31:18;16.65;;;8.38;;
27375;SDS011;14844;51.302;6.354;2023-02-28T02:42:14;15.98;;;7.50;;
27375;SDS011;14844;51.302;6.354;2023-02-28T02:44:52;14.98;;;7.90;;
27375;SDS011;14844;51.302;6.354;2023-02-28T02:47:34;14.32;;;7.40;;
27375;SDS011;14844;51.302;6.354;2023-02-28T02:50:02;16.20;;;7.57;;
27375;SDS011;14844;51.302;6.354;2023-02-28T02:52:40;15.68;;;7.63;;
27375;SDS011;14844;51.302;6.354;2023-02-28T02:55:10;15.55;;;8.30;;
27375;SDS011;14844;51.302;6.354;2023-02-28T02:57:44;14.18;;;7.80;;
27375;SDS011;14844;51.302;6.354;2023-02-28T03:00:14;15.85;;;7.13;;
27375;SDS011;14844;51.302;6.354;2023-02-28T03:02:42;15.20;;;7.57;;
27375;SDS011;14844;51.302;6.354;2023-02-28T03:05:28;13.98;;;7.35;;
27375;SDS011;14844;51.302;6.354;2023-02-28T03:08:02;16.70;;;7.90;;
27375;SDS011;14844;51.302;6.354;2023-02-28T03:10:35;15.18;;;7.80;;
27375;SDS011;14844;51.302;6.354;2023-02-28T03:13:16;15.15;;;7.78;;
27375;SDS011;14844;51.302;6.354;2023-02-28T03:27:35;14.70;;;7.88;;
27375;SDS011;14844;51.302;6.354;2023-02-28T03:30:25;12.32;;;7.57;;
27375;SDS011;14844;51.302;6.354;2023-02-28T03:32:58;14.15;;;7.82;;
27375;SDS011;14844;51.302;6.354;2023-02-28T03:35:35;14.48;;;7.72;;
27375;SDS011;14844;51.302;6.354;2023-02-28T03:38:09;14.57;;;7.32;;
27375;SDS011;14844;51.302;6.354;2023-02-28T03:40:50;12.30;;;7.28;;
27375;SDS011;14844;51.302;6.354;2023-02-28T03:43:27;12.75;;;7.38;;
27375;SDS011;14844;51.302;6.354;2023-02-28T03:45:56;14.50;;;7.53;;
27375;SDS011;14844;51.302;6.354;2023-02-28T03:48:27;15.05;;;7.85;;
27375;SDS011;14844;51.302;6.354;2023-02-28T03:51:05;13.75;;;7.40;;
27375;SDS011;14844;51.302;6.354;2023-02-28T03:53:36;14.10;;;7.35;;
27375;SDS011;14844;51.302;6.354;2023-02-28T03:56:07;18.27;;;7.60;;
27375;SDS011;14844;51.302;6.354;2023-02-28T03:58:44;24.17;;;7.78;;
27375;SDS011;14844;51.302;6.354;2023-02-28T04:01:24;11.10;;;7.15;;
27375;SDS011;14844;51.302;6.354;2023-02-28T04:04:00;12.77;;;7.07;;
27375;SDS011;14844;51.302;6.354;2023-02-28T04:06:26;12.60;;;7.07;;
27375;SDS011;14844;51.302;6.354;2023-02-28T04:08:52;13.32;;;7.75;;
27375;SDS011;14844;51.302;6.354;2023-02-28T04:11:19;14.18;;;7.25;;
27375;SDS011;14844;51.302;6.354;2023-02-28T04:13:55;19.70;;;7.07;;
27375;SDS011;14844;51.302;6.354;2023-02-28T04:16:20;13.35;;;7.07;;
27375;SDS011;14844;51.302;6.354;2023-02-28T04:18:46;13.57;;;6.97;;
27375;SDS011;14844;51.302;6.354;2023-02-28T04:21:12;14.95;;;7.38;;
27375;SDS011;14844;51.302;6.354;2023-02-28T04:23:38;16.80;;;7.10;;
27375;SDS011;14844;51.302;6.354;2023-02-28T04:26:03;15.27;;;6.68;;
27375;SDS011;14844;51.302;6.354;2023-02-28T04:28:30;16.67;;;6.93;;
27375;SDS011;14844;51.302;6.354;2023-02-28T04:30:56;16.75;;;7.30;;
27375;SDS011;14844;51.302;6.354;2023-02-28T04:33:23;15.43;;;6.93;;
27375;SDS011;14844;51.302;6.354;2023-02-28T04:35:57;16.75;;;7.07;;
27375;SDS011;14844;51.302;6.354;2023-02-28T04:38:23;13.93;;;6.88;;
27375;SDS011;14844;51.302;6.354;2023-02-28T04:40:49;10.88;;;6.93;;
27375;SDS011;14844;51.302;6.354;2023-02-28T04:43:14;14.82;;;6.60;;
27375;SDS011;14844;51.302;6.354;2023-02-28T04:45:40;13.27;;;6.75;;
27375;SDS011;14844;51.302;6.354;2023-02-28T04:48:05;18.92;;;6.85;;
27375;SDS011;14844;51.302;6.354;2023-02-28T04:50:31;11.18;;;6.22;;
27375;SDS011;14844;51.302;6.354;2023-02-28T04:52:56;14.43;;;6.22;;
27375;SDS011;14844;51.302;6.354;2023-02-28T04:55:22;18.05;;;6.40;;
27375;SDS011;14844;51.302;6.354;2023-02-28T04:57:47;14.32;;;6.28;;
27375;SDS011;14844;51.302;6.354;2023-02-28T05:00:13;14.27;;;5.90;;
27375;SDS011;14844;51.302;6.354;2023-02-28T05:02:41;13.48;;;5.53;;
27375;SDS011;14844;51.302;6.354;2023-02-28T05:05:07;12.82;;;5.60;;
27375;SDS011;14844;51.302;6.354;2023-02-28T05:07:33;13.50;;;5.85;;
27375;SDS011;14844;51.302;6.354;2023-02-28T05:09:59;13.07;;;5.68;;
27375;SDS011;14844;51.302;6.354;2023-02-28T05:12:24;8.43;;;5.25;;
27375;SDS011;14844;51.302;6.354;2023-02-28T05:14:50;13.35;;;5.88;;
27375;SDS011;14844;51.302;6.354;2023-02-28T05:17:15;12.25;;;5.63;;
27375;SDS011;14844;51.302;6.354;2023-02-28T05:19:41;11.35;;;5.70;;
27375;SDS011;14844;51.302;6.354;2023-02-28T05:22:11;10.40;;;5.60;;
27375;SDS011;14844;51.302;6.354;2023-02-28T05:24:39;13.00;;;6.20;;
27375;SDS011;14844;51.302;6.354;2023-02-28T05:27:05;13.57;;;5.47;;
27375;SDS011;14844;51.302;6.354;2023-02-28T05:29:30;10.00;;;5.25;;
27375;SDS011;14844;51.302;6.354;2023-02-28T05:31:56;9.82;;;5.25;;
27375;SDS011;14844;51.302;6.354;2023-02-28T05:34:21;13.07;;;5.60;;
27375;SDS011;14844;51.302;6.354;2023-02-28T05:36:47;13.18;;;5.80;;
27375;SDS011;14844;51.302;6.354;2023-02-28T05:39:12;15.05;;;6.05;;
27375;SDS011;14844;51.302;6.354;2023-02-28T05:41:39;10.38;;;5.68;;
27375;SDS011;14844;51.302;6.354;2023-02-28T05:44:08;12.07;;;5.88;;
27375;SDS011;14844;51.302;6.354;2023-02-28T05:46:33;15.30;;;6.22;;
27375;SDS011;14844;51.302;6.354;2023-02-28T05:48:59;13.80;;;6.50;;
27375;SDS011;14844;51.302;6.354;2023-02-28T05:51:25;18.40;;;6.40;;
27375;SDS011;14844;51.302;6.354;2023-02-28T05:53:52;13.70;;;6.07;;
27375;SDS011;14844;51.302;6.354;2023-02-28T05:56:18;14.35;;;6.28;;
27375;SDS011;14844;51.302;6.354;2023-02-28T05:58:44;12.40;;;5.80;;
27375;SDS011;14844;51.302;6.354;2023-02-28T06:04:02;15.05;;;6.28;;
27375;SDS011;14844;51.302;6.354;2023-02-28T06:06:29;17.65;;;6.00;;
27375;SDS011;14844;51.302;6.354;2023-02-28T06:08:56;10.98;;;5.63;;
27375;SDS011;14844;51.302;6.354;2023-02-28T06:11:22;11.50;;;5.28;;
27375;SDS011;14844;51.302;6.354;2023-02-28T06:13:53;12.55;;;5.53;;
27375;SDS011;14844;51.302;6.354;2023-02-28T06:16:20;13.85;;;5.75;;
27375;SDS011;14844;51.302;6.354;2023-02-28T06:18:45;14.13;;;5.53;;
27375;SDS011;14844;51.302;6.354;2023-02-28T06:21:11;11.32;;;6.00;;
27375;SDS011;14844;51.302;6.354;2023-02-28T06:23:37;14.70;;;6.25;;
27375;SDS011;14844;51.302;6.354;2023-02-28T06:26:03;10.38;;;5.22;;
27375;SDS011;14844;51.302;6.354;2023-02-28T06:28:29;17.98;;;6.43;;
27375;SDS011;14844;51.302;6.354;2023-02-28T06:30:54;11.82;;;5.22;;
27375;SDS011;14844;51.302;6.354;2023-02-28T06:33:20;11.75;;;5.47;;
27375;SDS011;14844;51.302;6.354;2023-02-28T06:35:46;12.82;;;5.10;;
27375;SDS011;14844;51.302;6.354;2023-02-28T06:38:14;11.80;;;5.70;;
27375;SDS011;14844;51.302;6.354;2023-02-28T06:40:40;11.25;;;5.03;;
27375;SDS011;14844;51.302;6.354;2023-02-28T06:43:06;13.23;;;5.40;;
27375;SDS011;14844;51.302;6.354;2023-02-28T06:45:32;10.48;;;5.05;;
27375;SDS011;14844;51.302;6.354;2023-02-28T06:47:57;12.55;;;5.40;;
27375;SDS011;14844;51.302;6.354;2023-02-28T06:50:25;11.82;;;5.75;;
27375;SDS011;14844;51.302;6.354;2023-02-28T06:52:52;13.18;;;5.72;;
27375;SDS011;14844;51.302;6.354;2023-02-28T06:55:20;10.80;;;5.20;;
27375;SDS011;14844;51.302;6.354;2023-02-28T06:57:46;13.43;;;5.80;;
27375;SDS011;14844;51.302;6.354;2023-02-28T07:00:11;11.52;;;5.63;;
27375;SDS011;14844;51.302;6.354;2023-02-28T07:02:37;11.05;;;5.35;;
27375;SDS011;14844;51.302;6.354;2023-02-28T07:05:04;18.77;;;7.40;;
27375;SDS011;14844;51.302;6.354;2023-02-28T07:07:30;16.98;;;7.57;;
27375;SDS011;14844;51.302;6.354;2023-02-28T07:09:57;13.10;;;6.07;;
27375;SDS011;14844;51.302;6.354;2023-02-28T07:12:22;9.68;;;5.63;;
27375;SDS011;14844;51.302;6.354;2023-02-28T07:14:48;9.57;;;5.80;;
27375;SDS011;14844;51.302;6.354;2023-02-28T07:17:13;14.23;;;5.40;;
27375;SDS011;14844;51.302;6.354;2023-02-28T07:19:39;10.05;;;5.22;;
27375;SDS011;14844;51.302;6.354;2023-02-28T07:22:05;13.07;;;5.32;;
27375;SDS011;14844;51.302;6.354;2023-02-28T07:24:31;13.02;;;5.47;;
27375;SDS011;14844;51.302;6.354;2023-02-28T07:26:57;10.68;;;4.78;;
27375;SDS011;14844;51.302;6.354;2023-02-28T07:29:22;14.52;;;5.15;;
27375;SDS011;14844;51.302;6.354;2023-02-28T07:31:48;11.65;;;4.50;;
27375;SDS011;14844;51.302;6.354;2023-02-28T07:34:15;11.35;;;4.82;;
27375;SDS011;14844;51.302;6.354;2023-02-28T07:36:41;15.65;;;5.22;;
27375;SDS011;14844;51.302;6.354;2023-02-28T07:39:06;11.15;;;5.00;;
27375;SDS011;14844;51.302;6.354;2023-02-28T07:41:35;11.73;;;5.20;;
27375;SDS011;14844;51.302;6.354;2023-02-28T07:44:04;12.75;;;4.65;;
27375;SDS011;14844;51.302;6.354;2023-02-28T07:46:30;12.27;;;4.38;;
27375;SDS011;14844;51.302;6.354;2023-02-28T07:49:00;17.02;;;5.70;;
27375;SDS011;14844;51.302;6.354;2023-02-28T07:51:27;11.73;;;5.78;;
27375;SDS011;14844;51.302;6.354;2023-02-28T07:53:54;12.90;;;5.32;;
27375;SDS011;14844;51.302;6.354;2023-02-28T07:56:19;14.63;;;5.38;;
27375;SDS011;14844;51.302;6.354;2023-02-28T07:58:45;12.40;;;5.13;;
27375;SDS011;14844;51.302;6.354;2023-02-28T08:01:10;13.70;;;5.57;;
27375;SDS011;14844;51.302;6.354;2023-02-28T08:03:37;13.98;;;5.10;;
27375;SDS011;14844;51.302;6.354;2023-02-28T08:06:04;12.25;;;5.00;;
27375;SDS011;14844;51.302;6.354;2023-02-28T08:08:30;11.45;;;4.50;;
27375;SDS011;14844;51.302;6.354;2023-02-28T08:11:00;11.93;;;4.68;;
27375;SDS011;14844;51.302;6.354;2023-02-28T08:13:27;10.45;;;4.60;;
27375;SDS011;14844;51.302;6.354;2023-02-28T08:15:54;7.70;;;4.15;;
27375;SDS011;14844;51.302;6.354;2023-02-28T08:18:20;11.88;;;4.40;;
27375;SDS011;14844;51.302;6.354;2023-02-28T08:20:46;12.57;;;4.80;;
27375;SDS011;14844;51.302;6.354;2023-02-28T08:23:12;11.13;;;4.65;;
27375;SDS011;14844;51.302;6.354;2023-02-28T08:25:38;16.45;;;4.70;;
27375;SDS011;14844;51.302;6.354;2023-02-28T08:28:03;9.02;;;4.30;;
27375;SDS011;14844;51.302;6.354;2023-02-28T08:30:29;8.00;;;4.57;;
27375;SDS011;14844;51.302;6.354;2023-02-28T08:32:55;14.90;;;4.20;;
27375;SDS011;14844;51.302;6.354;2023-02-28T08:35:20;11.23;;;4.18;;
27375;SDS011;14844;51.302;6.354;2023-02-28T08:37:47;9.57;;;4.05;;
27375;SDS011;14844;51.302;6.354;2023-02-28T08:40:14;8.00;;;4.05;;
27375;SDS011;14844;51.302;6.354;2023-02-28T08:42:43;6.65;;;3.50;;
27375;SDS011;14844;51.302;6.354;2023-02-28T08:45:15;10.50;;;4.43;;
27375;SDS011;14844;51.302;6.354;2023-02-28T08:47:40;12.05;;;3.75;;
27375;SDS011;14844;51.302;6.354;2023-02-28T08:50:06;7.78;;;3.60;;
27375;SDS011;14844;51.302;6.354;2023-02-28T08:52:32;7.63;;;3.53;;
27375;SDS011;14844;51.302;6.354;2023-02-28T08:54:58;6.95;;;3.60;;
27375;SDS011;14844;51.302;6.354;2023-02-28T08:57:24;9.50;;;3.67;;
27375;SDS011;14844;51.302;6.354;2023-02-28T08:59:51;8.48;;;3.03;;
27375;SDS011;14844;51.302;6.354;2023-02-28T09:02:17;8.73;;;3.40;;
27375;SDS011;14844;51.302;6.354;2023-02-28T09:04:42;6.43;;;2.85;;
27375;SDS011;14844;51.302;6.354;2023-02-28T09:07:10;6.80;;;3.10;;
27375;SDS011;14844;51.302;6.354;2023-02-28T09:09:36;6.45;;;3.15;;
27375;SDS011;14844;51.302;6.354;2023-02-28T09:12:01;5.93;;;2.10;;
27375;SDS011;14844;51.302;6.354;2023-02-28T09:14:27;3.55;;;1.80;;
27375;SDS011;14844;51.302;6.354;2023-02-28T09:16:53;4.32;;;2.10;;
27375;SDS011;14844;51.302;6.354;2023-02-28T09:19:18;4.05;;;1.85;;
27375;SDS011;14844;51.302;6.354;2023-02-28T09:21:44;3.28;;;1.70;;
27375;SDS011;14844;51.302;6.354;2023-02-28T09:24:09;4.70;;;2.35;;
27375;SDS011;14844;51.302;6.354;2023-02-28T09:26:38;2.83;;;1.80;;
27375;SDS011;14844;51.302;6.354;2023-02-28T09:29:04;5.45;;;1.60;;
27375;SDS011;14844;51.302;6.354;2023-02-28T09:31:29;5.28;;;1.88;;
27375;SDS011;14844;51.302;6.354;2023-02-28T09:33:56;3.22;;;1.70;;
27375;SDS011;14844;51.302;6.354;2023-02-28T09:36:22;5.38;;;1.50;;
27375;SDS011;14844;51.302;6.354;2023-02-28T09:38:49;3.30;;;1.90;;
27375;SDS011;14844;51.302;6.354;2023-02-28T09:41:23;3.65;;;1.73;;
27375;SDS011;14844;51.302;6.354;2023-02-28T09:43:54;3.50;;;1.98;;
27375;SDS011;14844;51.302;6.354;2023-02-28T09:46:29;3.05;;;1.67;;
27375;SDS011;14844;51.302;6.354;2023-02-28T09:49:00;3.72;;;2.10;;
27375;SDS011;14844;51.302;6.354;2023-02-28T09:51:30;3.10;;;1.67;;
27375;SDS011;14844;51.302;6.354;2023-02-28T09:54:04;4.28;;;1.80;;
27375;SDS011;14844;51.302;6.354;2023-02-28T09:56:32;5.20;;;1.83;;
27375;SDS011;14844;51.302;6.354;2023-02-28T10:04:46;3.72;;;1.70;;
27375;SDS011;14844;51.302;6.354;2023-02-28T10:10:29;9.80;;;2.40;;
27375;SDS011;14844;51.302;6.354;2023-02-28T10:16:13;5.55;;;2.00;;
27375;SDS011;14844;51.302;6.354;2023-02-28T10:18:46;2.33;;;1.33;;
27375;SDS011;14844;51.302;6.354;2023-02-28T10:21:20;3.67;;;1.88;;
27375;SDS011;14844;51.302;6.354;2023-02-28T10:23:51;4.75;;;1.95;;
27375;SDS011;14844;51.302;6.354;2023-02-28T10:26:24;4.50;;;2.05;;
27375;SDS011;14844;51.302;6.354;2023-02-28T10:28:53;4.93;;;1.80;;
27375;SDS011;14844;51.302;6.354;2023-02-28T10:31:19;3.95;;;1.75;;
27375;SDS011;14844;51.302;6.354;2023-02-28T10:33:45;4.35;;;1.80;;
27375;SDS011;14844;51.302;6.354;2023-02-28T10:36:13;3.72;;;1.77;;
27375;SDS011;14844;51.302;6.354;2023-02-28T10:38:41;4.47;;;2.50;;
27375;SDS011;14844;51.302;6.354;2023-02-28T10:41:10;6.13;;;2.22;;
27375;SDS011;14844;51.302;6.354;2023-02-28T10:43:38;4.43;;;2.08;;
27375;SDS011;14844;51.302;6.354;2023-02-28T10:51:01;6.95;;;2.30;;
27375;SDS011;14844;51.302;6.354;2023-02-28T10:53:31;6.05;;;1.92;;
27375;SDS011;14844;51.302;6.354;2023-02-28T10:56:17;3.78;;;2.00;;
27375;SDS011;14844;51.302;6.354;2023-02-28T11:04:49;5.07;;;2.10;;
27375;SDS011;14844;51.302;6.354;2023-02-28T11:07:05;3.78;;;2.00;;
27375;SDS011;14844;51.302;6.354;2023-02-28T11:09:41;4.13;;;2.15;;
27375;SDS011;14844;51.302;6.354;2023-02-28T11:12:20;4.93;;;2.08;;
27375;SDS011;14844;51.302;6.354;2023-02-28T11:15:02;4.43;;;2.50;;
27375;SDS011;14844;51.302;6.354;2023-02-28T11:17:31;6.00;;;2.00;;
27375;SDS011;14844;51.302;6.354;2023-02-28T11:19:59;3.30;;;2.13;;
27375;SDS011;14844;51.302;6.354;2023-02-28T11:22:32;4.13;;;2.03;;
27375;SDS011;14844;51.302;6.354;2023-02-28T11:25:06;3.35;;;1.83;;
27375;SDS011;14844;51.302;6.354;2023-02-28T11:30:25;2.58;;;1.80;;
27375;SDS011;14844;51.302;6.354;2023-02-28T11:32:51;3.03;;;1.70;;
27375;SDS011;14844;51.302;6.354;2023-02-28T11:35:18;6.68;;;2.45;;
27375;SDS011;14844;51.302;6.354;2023-02-28T11:37:49;6.95;;;2.20;;
27375;SDS011;14844;51.302;6.354;2023-02-28T11:40:15;4.70;;;2.08;;
27375;SDS011;14844;51.302;6.354;2023-02-28T11:46:10;4.57;;;1.88;;
27375;SDS011;14844;51.302;6.354;2023-02-28T11:51:44;5.88;;;1.98;;
27375;SDS011;14844;51.302;6.354;2023-02-28T11:57:16;5.50;;;2.35;;
27375;SDS011;14844;51.302;6.354;2023-02-28T12:02:30;6.32;;;2.10;;
27375;SDS011;14844;51.302;6.354;2023-02-28T12:11:38;3.55;;;1.90;;
27375;SDS011;14844;51.302;6.354;2023-02-28T12:20:30;4.78;;;2.15;;
27375;SDS011;14844;51.302;6.354;2023-02-28T12:26:01;3.88;;;1.98;;
27375;SDS011;14844;51.302;6.354;2023-02-28T12:28:34;5.20;;;1.90;;
27375;SDS011;14844;51.302;6.354;2023-02-28T12:31:11;5.65;;;2.17;;
27375;SDS011;14844;51.302;6.354;2023-02-28T12:33:45;3.85;;;2.08;;
27375;SDS011;14844;51.302;6.354;2023-02-28T12:36:17;4.80;;;1.90;;
27375;SDS011;14844;51.302;6.354;2023-02-28T12:39:00;6.65;;;2.10;;
27375;SDS011;14844;51.302;6.354;2023-02-28T12:41:33;7.43;;;2.38;;
27375;SDS011;14844;51.302;6.354;2023-02-28T12:44:28;4.18;;;2.00;;
27375;SDS011;14844;51.302;6.354;2023-02-28T12:47:01;4.38;;;1.98;;
27375;SDS011;14844;51.302;6.354;2023-02-28T12:49:52;4.30;;;2.20;;
27375;SDS011;14844;51.302;6.354;2023-02-28T12:52:25;5.00;;;2.28;;
27375;SDS011;14844;51.302;6.354;2023-02-28T12:55:02;6.05;;;1.90;;
27375;SDS011;14844;51.302;6.354;2023-02-28T12:57:46;6.03;;;2.20;;
27375;SDS011;14844;51.302;6.354;2023-02-28T13:00:19;7.93;;;2.22;;
27375;SDS011;14844;51.302;6.354;2023-02-28T13:11:05;4.82;;;2.20;;
27375;SDS011;14844;51.302;6.354;2023-02-28T13:13:31;3.97;;;1.90;;
27375;SDS011;14844;51.302;6.354;2023-02-28T13:18:38;5.03;;;2.20;;
27375;SDS011;14844;51.302;6.354;2023-02-28T13:21:27;7.43;;;2.30;;
27375;SDS011;14844;51.302;6.354;2023-02-28T13:23:58;3.63;;;2.30;;
27375;SDS011;14844;51.302;6.354;2023-02-28T13:29:20;6.30;;;2.25;;
27375;SDS011;14844;51.302;6.354;2023-02-28T13:34:33;4.68;;;2.50;;
27375;SDS011;14844;51.302;6.354;2023-02-28T13:39:53;5.18;;;2.33;;
27375;SDS011;14844;51.302;6.354;2023-02-28T13:47:36;8.30;;;2.67;;
27375;SDS011;14844;51.302;6.354;2023-02-28T13:50:21;7.13;;;2.50;;
27375;SDS011;14844;51.302;6.354;2023-02-28T13:55:53;7.63;;;2.60;;
27375;SDS011;14844;51.302;6.354;2023-02-28T13:58:50;5.70;;;2.92;;
27375;SDS011;14844;51.302;6.354;2023-02-28T14:07:05;8.48;;;2.60;;
27375;SDS011;14844;51.302;6.354;2023-02-28T14:09:34;8.25;;;2.58;;
27375;SDS011;14844;51.302;6.354;2023-02-28T14:18:18;5.20;;;2.75;;
27375;SDS011;14844;51.302;6.354;2023-02-28T14:20:52;6.15;;;2.22;;
27375;SDS011;14844;51.302;6.354;2023-02-28T14:31:29;8.40;;;3.83;;
27375;SDS011;14844;51.302;6.354;2023-02-28T14:34:05;4.50;;;2.25;;
27375;SDS011;14844;51.302;6.354;2023-02-28T14:36:43;6.75;;;3.65;;
27375;SDS011;14844;51.302;6.354;2023-02-28T14:39:16;11.27;;;5.18;;
27375;SDS011;14844;51.302;6.354;2023-02-28T14:41:46;4.47;;;2.28;;
27375;SDS011;14844;51.302;6.354;2023-02-28T14:44:13;8.90;;;3.17;;
27375;SDS011;14844;51.302;6.354;2023-02-28T14:46:41;5.18;;;3.17;;
27375;SDS011;14844;51.302;6.354;2023-02-28T14:49:19;5.25;;;3.00;;
27375;SDS011;14844;51.302;6.354;2023-02-28T14:52:07;5.65;;;2.40;;
27375;SDS011;14844;51.302;6.354;2023-02-28T14:54:45;4.18;;;2.88;;
27375;SDS011;14844;51.302;6.354;2023-02-28T14:57:23;5.20;;;2.83;;
27375;SDS011;14844;51.302;6.354;2023-02-28T14:59:58;6.90;;;3.08;;
27375;SDS011;14844;51.302;6.354;2023-02-28T15:02:42;8.02;;;3.13;;
27375;SDS011;14844;51.302;6.354;2023-02-28T15:07:37;5.65;;;3.03;;
27375;SDS011;14844;51.302;6.354;2023-02-28T15:10:19;7.75;;;2.65;;
27375;SDS011;14844;51.302;6.354;2023-02-28T15:12:54;5.40;;;2.40;;
27375;SDS011;14844;51.302;6.354;2023-02-28T15:15:34;4.75;;;2.58;;
27375;SDS011;14844;51.302;6.354;2023-02-28T15:20:50;4.75;;;2.75;;
27375;SDS011;14844;51.302;6.354;2023-02-28T15:23:17;5.28;;;2.70;;
27375;SDS011;14844;51.302;6.354;2023-02-28T15:25:44;8.80;;;2.90;;
27375;SDS011;14844;51.302;6.354;2023-02-28T15:28:14;6.55;;;2.80;;
27375;SDS011;14844;51.302;6.354;2023-02-28T15:30:58;7.18;;;3.03;;
27375;SDS011;14844;51.302;6.354;2023-02-28T15:33:27;5.65;;;2.75;;
27375;SDS011;14844;51.302;6.354;2023-02-28T15:36:32;4.57;;;2.85;;
27375;SDS011;14844;51.302;6.354;2023-02-28T15:38:54;7.00;;;3.00;;
27375;SDS011;14844;51.302;6.354;2023-02-28T15:41:27;5.43;;;2.55;;
27375;SDS011;14844;51.302;6.354;2023-02-28T15:47:02;5.47;;;2.88;;
27375;SDS011;14844;51.302;6.354;2023-02-28T15:49:48;3.97;;;2.50;;
27375;SDS011;14844;51.302;6.354;2023-02-28T15:52:21;5.30;;;2.92;;
27375;SDS011;14844;51.302;6.354;2023-02-28T15:55:12;5.82;;;2.80;;
27375;SDS011;14844;51.302;6.354;2023-02-28T15:57:44;5.45;;;2.90;;
27375;SDS011;14844;51.302;6.354;2023-02-28T16:00:12;4.85;;;2.80;;
27375;SDS011;14844;51.302;6.354;2023-02-28T16:02:40;5.85;;;2.72;;
27375;SDS011;14844;51.302;6.354;2023-02-28T16:07:38;5.80;;;2.72;;
27375;SDS011;14844;51.302;6.354;2023-02-28T16:10:05;5.22;;;2.70;;
27375;SDS011;14844;51.302;6.354;2023-02-28T16:12:34;4.30;;;2.60;;
27375;SDS011;14844;51.302;6.354;2023-02-28T16:15:02;8.13;;;2.95;;
27375;SDS011;14844;51.302;6.354;2023-02-28T16:17:52;6.75;;;3.42;;
27375;SDS011;14844;51.302;6.354;2023-02-28T16:20:19;7.70;;;3.17;;
27375;SDS011;14844;51.302;6.354;2023-02-28T16:22:47;5.95;;;2.72;;
27375;SDS011;14844;51.302;6.354;2023-02-28T16:25:16;6.07;;;2.75;;
27375;SDS011;14844;51.302;6.354;2023-02-28T16:30:16;8.85;;;3.08;;
27375;SDS011;14844;51.302;6.354;2023-02-28T16:32:47;6.45;;;2.70;;
27375;SDS011;14844;51.302;6.354;2023-02-28T16:35:13;5.70;;;2.80;;
27375;SDS011;14844;51.302;6.354;2023-02-28T16:37:39;7.55;;;2.83;;
27375;SDS011;14844;51.302;6.354;2023-02-28T16:40:06;6.13;;;2.78;;
27375;SDS011;14844;51.302;6.354;2023-02-28T16:42:34;8.15;;;2.63;;
27375;SDS011;14844;51.302;6.354;2023-02-28T16:44:59;6.30;;;2.85;;
27375;SDS011;14844;51.302;6.354;2023-02-28T16:47:28;5.22;;;2.63;;
27375;SDS011;14844;51.302;6.354;2023-02-28T16:49:58;6.93;;;2.90;;
27375;SDS011;14844;51.302;6.354;2023-02-28T16:52:24;5.10;;;2.70;;
27375;SDS011;14844;51.302;6.354;2023-02-28T16:54:49;6.72;;;2.72;;
27375;SDS011;14844;51.302;6.354;2023-02-28T16:57:17;4.97;;;2.90;;
27375;SDS011;14844;51.302;6.354;2023-02-28T16:59:46;6.38;;;3.25;;
27375;SDS011;14844;51.302;6.354;2023-02-28T17:02:13;5.93;;;3.10;;
27375;SDS011;14844;51.302;6.354;2023-02-28T17:04:41;9.88;;;3.20;;
27375;SDS011;14844;51.302;6.354;2023-02-28T17:07:10;11.43;;;3.97;;
27375;SDS011;14844;51.302;6.354;2023-02-28T17:09:38;5.03;;;3.42;;
27375;SDS011;14844;51.302;6.354;2023-02-28T17:12:04;6.88;;;3.30;;
27375;SDS011;14844;51.302;6.354;2023-02-28T17:14:30;7.78;;;3.30;;
27375;SDS011;14844;51.302;6.354;2023-02-28T17:16:55;6.78;;;3.28;;
27375;SDS011;14844;51.302;6.354;2023-02-28T17:19:21;6.28;;;3.40;;
27375;SDS011;14844;51.302;6.354;2023-02-28T17:21:47;6.55;;;3.35;;
27375;SDS011;14844;51.302;6.354;2023-02-28T17:24:12;13.52;;;4.20;;
27375;SDS011;14844;51.302;6.354;2023-02-28T17:26:41;7.25;;;3.60;;
27375;SDS011;14844;51.302;6.354;2023-02-28T17:29:14;8.93;;;3.47;;